Time;durP1;ratioP1;P1;durP2;ratioP2;P2;SDS_P1;SDS_P2;PMS_P1;PMS_P2;Temp;Humidity;BMP_temperature;BMP_pressure;BME280_temperature;BME280_humidity;BME280_pressure;Samples;Min_cycle;Max_cycle;Signal;HPM_P1;HPM_P2
2021/09/02 00:00:10;;;;;;;18.50;8.82;;;;;;;22.95;46.07;103206.13;4991316;28;20022;-72
2021/09/02 00:02:36;;;;;;;10.63;7.88;;;;;;;22.96;45.97;103203.00;4990036;28;20022;-90
2021/09/02 00:05:02;;;;;;;10.43;7.18;;;;;;;22.90;46.34;103198.00;4990301;28;20023;-90
2021/09/02 00:07:28;;;;;;;16.48;7.70;;;;;;;22.96;45.88;103205.78;4990993;28;20064;-72
2021/09/02 00:09:54;;;;;;;12.50;7.75;;;;;;;22.96;46.07;103208.59;4989928;28;20058;-73
2021/09/02 00:12:19;;;;;;;10.13;7.70;;;;;;;23.00;45.85;103208.75;4991384;28;20026;-72
2021/09/02 00:14:45;;;;;;;10.32;7.05;;;;;;;22.96;45.86;103208.59;4991148;28;20022;-73
2021/09/02 00:17:11;;;;;;;13.25;7.97;;;;;;;22.98;45.51;103205.47;4990800;28;20366;-87
2021/09/02 00:19:36;;;;;;;11.00;7.50;;;;;;;22.97;45.64;103206.63;4991022;28;20030;-72
2021/09/02 00:22:03;;;;;;;11.65;7.28;;;;;;;22.94;45.33;103207.31;4989701;28;20033;-72
2021/09/02 00:24:28;;;;;;;11.52;7.45;;;;;;;22.94;45.53;103215.66;4990844;28;20053;-72
2021/09/02 00:26:54;;;;;;;15.10;8.77;;;;;;;22.91;45.69;103217.16;4990180;28;20038;-72
2021/09/02 00:29:20;;;;;;;10.63;7.22;;;;;;;22.92;45.74;103207.66;4989766;28;20038;-72
2021/09/02 00:31:46;;;;;;;13.82;8.00;;;;;;;22.83;45.92;103209.66;4989806;28;20027;-72
2021/09/02 00:34:12;;;;;;;13.63;7.80;;;;;;;22.84;45.81;103202.09;4990997;28;20435;-72
2021/09/02 00:36:38;;;;;;;9.35;7.72;;;;;;;22.85;45.66;103209.31;4991060;28;20060;-73
2021/09/02 00:39:04;;;;;;;11.43;8.93;;;;;;;22.80;46.13;103203.91;4990367;28;20111;-73
2021/09/02 00:41:29;;;;;;;10.13;8.20;;;;;;;22.86;45.66;103194.25;4990788;28;20030;-72
2021/09/02 00:43:55;;;;;;;13.38;8.45;;;;;;;22.85;45.65;103199.00;4989692;28;20534;-72
2021/09/02 00:46:21;;;;;;;10.68;7.70;;;;;;;22.84;45.87;103199.31;4990583;28;20080;-72
2021/09/02 00:48:48;;;;;;;12.25;9.70;;;;;;;22.84;46.12;103199.31;4991001;28;20043;-89
2021/09/02 00:51:15;;;;;;;14.60;9.18;;;;;;;22.82;46.15;103196.88;4990925;28;20480;-72
2021/09/02 00:53:42;;;;;;;10.60;7.57;;;;;;;22.84;45.98;103196.53;4990501;28;20031;-72
2021/09/02 00:56:08;;;;;;;12.68;8.73;;;;;;;22.82;46.11;103198.81;4990663;28;20034;-73
2021/09/02 00:58:34;;;;;;;12.43;7.95;;;;;;;22.93;46.00;103192.53;4990710;28;20030;-72
2021/09/02 01:01:01;;;;;;;12.00;8.77;;;;;;;22.95;46.07;103200.56;4990598;28;20396;-72
2021/09/02 01:03:27;;;;;;;13.85;7.85;;;;;;;22.99;45.99;103195.97;4990932;28;20111;-72
2021/09/02 01:05:53;;;;;;;10.27;6.95;;;;;;;22.87;45.95;103190.28;4989346;28;20639;-72
2021/09/02 01:08:19;;;;;;;11.23;7.68;;;;;;;22.62;45.52;103192.06;4989148;28;20026;-72
2021/09/02 01:10:49;;;;;;;11.15;7.35;;;;;;;22.28;44.93;103193.03;4990569;28;20047;-72
2021/09/02 01:13:21;;;;;;;12.38;8.48;;;;;;;22.04;44.89;103204.72;4989338;28;20031;-72
2021/09/02 01:15:47;;;;;;;12.95;8.45;;;;;;;21.82;44.88;103191.84;4990492;28;20035;-73
2021/09/02 01:18:13;;;;;;;10.75;9.05;;;;;;;21.65;44.71;103186.31;4990534;28;20030;-72
2021/09/02 01:20:39;;;;;;;9.95;7.53;;;;;;;21.62;44.61;103187.00;4989103;28;20076;-72
2021/09/02 01:23:06;;;;;;;11.57;8.65;;;;;;;21.62;44.30;103182.25;4989070;28;20054;-72
2021/09/02 01:25:35;;;;;;;10.75;8.50;;;;;;;21.60;44.25;103179.75;4990012;28;20088;-72
2021/09/02 01:28:03;;;;;;;13.73;9.82;;;;;;;21.67;44.42;103172.88;4990139;28;20073;-72
2021/09/02 01:30:30;;;;;;;12.55;9.98;;;;;;;22.00;45.55;103173.16;4990062;28;20031;-72
2021/09/02 01:32:57;;;;;;;12.18;10.88;;;;;;;22.25;46.43;103166.69;4990403;28;20072;-72
2021/09/02 01:35:24;;;;;;;15.18;10.77;;;;;;;22.47;46.61;103173.13;4989985;28;20031;-72
2021/09/02 01:37:58;;;;;;;14.50;9.48;;;;;;;22.64;46.57;103167.47;4988719;28;20058;-72
2021/09/02 01:40:29;;;;;;;10.98;9.43;;;;;;;22.68;47.22;103180.38;4989734;28;20083;-72
2021/09/02 01:42:55;;;;;;;11.43;9.15;;;;;;;22.80;46.79;103168.50;4988730;28;20088;-72
2021/09/02 01:45:20;;;;;;;12.80;9.45;;;;;;;22.81;47.03;103177.66;4990162;28;20520;-72
2021/09/02 01:47:47;;;;;;;12.90;9.40;;;;;;;22.84;46.69;103171.44;4990124;28;20086;-72
2021/09/02 01:50:21;;;;;;;13.30;9.32;;;;;;;22.79;47.30;103177.19;4989975;28;20598;-88
2021/09/02 01:52:48;;;;;;;10.82;9.13;;;;;;;22.85;47.17;103168.34;4993724;28;20370;-72
2021/09/02 01:55:14;;;;;;;12.20;8.85;;;;;;;22.93;46.94;103170.25;4992235;28;20527;-73
2021/09/02 01:57:40;;;;;;;14.82;8.90;;;;;;;22.91;47.19;103169.78;4992945;28;20035;-72
2021/09/02 02:00:08;;;;;;;11.55;8.07;;;;;;;22.96;46.87;103172.34;4993220;28;20040;-89
2021/09/02 02:02:34;;;;;;;12.52;9.52;;;;;;;22.89;47.05;103171.25;4993155;28;20030;-72
2021/09/02 02:05:00;;;;;;;22.10;10.00;;;;;;;22.92;47.13;103173.38;4993475;28;20023;-73
2021/09/02 02:07:26;;;;;;;10.95;9.70;;;;;;;22.54;47.05;103170.66;4992930;28;20041;-72
2021/09/02 02:09:53;;;;;;;13.18;9.75;;;;;;;22.43;46.67;103170.19;4991749;28;20034;-72
2021/09/02 02:12:18;;;;;;;12.88;9.05;;;;;;;22.32;46.17;103164.19;4993012;28;20492;-72
2021/09/02 02:14:44;;;;;;;10.55;8.95;;;;;;;22.27;46.04;103169.13;4993119;28;20062;-72
2021/09/02 02:17:10;;;;;;;17.88;9.35;;;;;;;22.25;46.14;103165.88;4991449;28;20126;-72
2021/09/02 02:19:36;;;;;;;15.10;9.82;;;;;;;22.37;47.00;103155.66;4991681;28;20031;-72
2021/09/02 02:22:02;;;;;;;12.23;9.23;;;;;;;22.53;47.35;103158.69;4991686;28;20046;-72
2021/09/02 02:24:28;;;;;;;14.23;10.02;;;;;;;22.59;47.67;103164.84;4992960;28;20054;-72
2021/09/02 02:26:57;;;;;;;13.43;10.52;;;;;;;22.69;47.90;103153.34;4992518;28;20412;-73
2021/09/02 02:29:23;;;;;;;18.45;11.05;;;;;;;22.71;48.32;103162.97;4991591;28;20026;-72
2021/09/02 02:31:48;;;;;;;14.10;10.90;;;;;;;22.84;47.94;103158.31;4992693;28;20076;-72
2021/09/02 02:34:15;;;;;;;14.68;9.90;;;;;;;22.80;48.33;103159.31;4992947;28;20022;-72
2021/09/02 02:36:40;;;;;;;15.77;11.35;;;;;;;22.87;48.29;103157.66;4991495;28;20026;-73
2021/09/02 02:39:06;;;;;;;19.85;9.90;;;;;;;22.87;48.30;103152.09;4992821;28;20530;-72
2021/09/02 02:41:32;;;;;;;13.20;10.50;;;;;;;22.98;48.47;103155.31;4992641;28;20097;-72
2021/09/02 02:43:59;;;;;;;13.85;10.43;;;;;;;22.98;48.83;103153.31;4992507;28;20072;-72
2021/09/02 02:46:24;;;;;;;15.38;10.38;;;;;;;23.09;48.30;103150.94;4989472;28;20026;-73
2021/09/02 02:48:50;;;;;;;16.52;10.25;;;;;;;23.13;48.68;103151.91;4992221;28;20033;-72
2021/09/02 02:51:16;;;;;;;13.07;9.98;;;;;;;23.24;48.49;103147.50;4992658;28;20026;-73
2021/09/02 02:53:41;;;;;;;21.98;10.43;;;;;;;23.26;48.50;103150.78;4991199;28;20022;-72
2021/09/02 02:56:08;;;;;;;20.05;11.23;;;;;;;23.26;48.92;103142.41;4992570;28;20076;-72
2021/09/02 02:58:34;;;;;;;17.45;10.30;;;;;;;23.16;49.29;103145.63;4992485;28;20030;-72
2021/09/02 03:00:59;;;;;;;15.45;10.43;;;;;;;23.13;49.18;103142.72;4992209;28;20480;-72
2021/09/02 03:03:25;;;;;;;18.08;10.23;;;;;;;23.22;49.13;103141.47;5023786;28;20393;-73
2021/09/02 03:05:51;;;;;;;16.17;10.80;;;;;;;23.18;49.21;103139.69;4992304;28;20018;-89
2021/09/02 03:08:16;;;;;;;14.25;11.00;;;;;;;23.12;49.30;103150.22;4992121;28;20034;-72
2021/09/02 03:10:42;;;;;;;12.15;10.05;;;;;;;23.08;49.52;103149.31;4992207;28;20019;-72
2021/09/02 03:13:08;;;;;;;14.85;11.02;;;;;;;23.16;49.79;103150.38;4992085;28;20027;-72
2021/09/02 03:15:34;;;;;;;18.33;10.55;;;;;;;23.22;49.81;103144.25;4992033;28;20034;-72
2021/09/02 03:18:00;;;;;;;15.43;10.48;;;;;;;23.27;49.99;103143.22;4991949;28;20034;-73
2021/09/02 03:20:26;;;;;;;16.42;10.75;;;;;;;23.30;50.00;103145.34;4992131;28;20495;-72
2021/09/02 03:22:52;;;;;;;14.85;11.02;;;;;;;23.29;50.19;103142.91;4990439;28;20025;-72
2021/09/02 03:25:18;;;;;;;14.10;9.88;;;;;;;23.29;50.53;103146.50;4991909;28;20026;-72
2021/09/02 03:27:43;;;;;;;12.02;10.13;;;;;;;23.38;50.13;103140.84;4991782;28;20033;-72
2021/09/02 03:30:10;;;;;;;16.33;11.60;;;;;;;23.45;50.48;103146.69;4992133;28;20030;-73
2021/09/02 03:32:36;;;;;;;18.63;11.45;;;;;;;23.49;50.18;103142.03;4991870;28;20093;-72
2021/09/02 03:35:03;;;;;;;21.55;12.00;;;;;;;23.53;49.99;103143.78;4991857;28;20105;-72
2021/09/02 03:37:28;;;;;;;13.88;10.48;;;;;;;23.57;50.38;103143.09;4991765;28;20026;-72
2021/09/02 03:39:54;;;;;;;16.27;12.20;;;;;;;23.62;49.77;103140.13;4991756;28;20427;-73
2021/09/02 03:42:19;;;;;;;16.38;11.75;;;;;;;23.63;49.76;103136.97;4991922;28;20423;-72
2021/09/02 03:44:45;;;;;;;19.65;12.15;;;;;;;23.64;49.76;103137.81;4991653;28;20052;-76
2021/09/02 03:47:11;;;;;;;17.77;11.15;;;;;;;23.70;49.86;103136.44;4991455;28;20033;-72
2021/09/02 03:49:36;;;;;;;14.07;10.95;;;;;;;23.66;49.52;103135.50;4991625;28;20075;-72
2021/09/02 03:52:02;;;;;;;17.95;11.75;;;;;;;23.71;49.37;103138.88;4990198;28;20026;-72
2021/09/02 03:54:28;;;;;;;15.13;11.18;;;;;;;23.70;49.44;103137.25;4990532;28;20054;-72
2021/09/02 03:56:53;;;;;;;18.15;11.13;;;;;;;23.74;49.33;103135.41;4991437;28;20065;-73
2021/09/02 03:59:19;;;;;;;18.95;10.90;;;;;;;23.73;49.31;103130.97;4991373;28;20365;-72
2021/09/02 04:01:45;;;;;;;15.38;10.48;;;;;;;23.73;49.04;103130.16;4991372;28;20369;-72
2021/09/02 04:04:10;;;;;;;14.05;10.77;;;;;;;23.68;49.09;103125.63;4991617;28;20051;-72
2021/09/02 04:06:36;;;;;;;15.68;10.82;;;;;;;23.66;49.20;103130.72;4989960;28;20030;-72
2021/09/02 04:09:02;;;;;;;13.88;9.77;;;;;;;23.67;49.08;103121.19;4991417;28;20036;-91
2021/09/02 04:11:27;;;;;;;17.15;10.00;;;;;;;23.55;49.21;103118.34;4991301;28;20140;-72
2021/09/02 04:13:53;;;;;;;19.95;11.02;;;;;;;23.53;49.24;103115.88;4990462;28;20033;-73
2021/09/02 04:16:18;;;;;;;14.20;11.48;;;;;;;23.52;49.09;103119.03;4991132;28;20505;-72
2021/09/02 04:18:44;;;;;;;18.85;11.35;;;;;;;23.60;49.00;103114.50;4991384;28;20073;-72
2021/09/02 04:21:09;;;;;;;22.90;11.40;;;;;;;23.59;48.89;103124.88;4991030;28;20477;-73
2021/09/02 04:23:35;;;;;;;13.07;9.43;;;;;;;23.63;49.09;103125.81;4991084;28;20047;-72
2021/09/02 04:26:02;;;;;;;19.02;9.88;;;;;;;23.61;49.07;103122.56;4990984;28;20419;-72
2021/09/02 04:28:28;;;;;;;16.38;9.02;;;;;;;23.58;49.11;103125.19;4991198;28;20036;-72
2021/09/02 04:30:53;;;;;;;17.83;10.23;;;;;;;23.59;48.85;103115.69;4989911;28;20497;-88
2021/09/02 04:33:19;;;;;;;19.70;8.65;;;;;;;23.60;48.52;103114.50;4989652;28;20034;-73
2021/09/02 04:35:45;;;;;;;13.45;8.63;;;;;;;23.57;48.28;103115.19;4991088;28;20031;-73
2021/09/02 04:38:11;;;;;;;20.85;10.10;;;;;;;23.55;48.20;103107.16;4989640;28;20481;-72
2021/09/02 04:40:37;;;;;;;16.88;8.60;;;;;;;23.59;47.89;103107.31;4991167;28;20038;-73
2021/09/02 04:43:03;;;;;;;13.13;9.52;;;;;;;23.60;47.61;103120.09;4991039;28;20369;-72
2021/09/02 04:45:29;;;;;;;14.93;9.30;;;;;;;23.62;47.75;103106.63;4990668;28;20034;-73
2021/09/02 04:47:55;;;;;;;16.30;10.30;;;;;;;23.54;47.71;103111.13;4990627;28;20061;-72
2021/09/02 04:50:21;;;;;;;15.98;8.52;;;;;;;23.61;47.68;103108.63;4989819;28;20034;-73
2021/09/02 04:52:46;;;;;;;15.10;8.88;;;;;;;23.60;47.48;103109.78;4990735;28;20115;-72
2021/09/02 04:55:13;;;;;;;13.98;10.10;;;;;;;23.63;47.67;103103.50;4990787;28;20551;-73
2021/09/02 04:57:40;;;;;;;15.98;8.95;;;;;;;23.60;47.61;103107.00;4990739;28;20053;-73
2021/09/02 05:00:07;;;;;;;14.57;8.43;;;;;;;23.54;47.37;103108.34;4990639;28;20033;-73
2021/09/02 05:02:33;;;;;;;21.48;9.98;;;;;;;23.57;47.54;103110.41;4990520;28;20031;-73
2021/09/02 05:04:58;;;;;;;18.02;9.43;;;;;;;23.59;47.33;103107.31;4989446;28;20019;-72
2021/09/02 05:07:24;;;;;;;15.10;9.55;;;;;;;23.58;47.35;103100.91;4990523;28;20515;-72
2021/09/02 05:09:51;;;;;;;16.20;10.57;;;;;;;23.63;47.23;103100.72;4990531;28;20034;-72
2021/09/02 05:12:17;;;;;;;16.58;10.38;;;;;;;23.60;46.96;103104.19;4990489;28;20035;-89
2021/09/02 05:14:45;;;;;;;15.95;10.55;;;;;;;23.60;47.20;103101.41;4990272;28;20027;-73
2021/09/02 05:17:11;;;;;;;17.80;9.73;;;;;;;23.61;46.96;103097.44;4989153;28;20037;-73
2021/09/02 05:19:37;;;;;;;21.63;10.95;;;;;;;23.56;47.05;103094.84;4990415;28;20392;-73
2021/09/02 05:22:02;;;;;;;13.98;9.73;;;;;;;23.67;46.75;103103.63;4990329;28;20041;-72
2021/09/02 05:24:28;;;;;;;15.55;10.68;;;;;;;23.67;47.01;103109.22;4990112;28;20492;-72
2021/09/02 05:26:54;;;;;;;23.27;12.40;;;;;;;23.67;47.01;103101.66;4993658;28;20041;-72
2021/09/02 05:29:20;;;;;;;13.80;9.90;;;;;;;23.70;46.55;103091.78;4993699;28;20106;-74
2021/09/02 05:31:45;;;;;;;18.90;10.65;;;;;;;23.70;46.59;103097.34;4993735;28;20022;-73
2021/09/02 05:34:11;;;;;;;16.55;8.95;;;;;;;23.68;47.13;103097.69;4992454;28;20058;-72
2021/09/02 05:36:37;;;;;;;15.73;9.77;;;;;;;23.61;46.86;103093.84;4993798;28;20526;-72
2021/09/02 05:39:03;;;;;;;12.23;10.23;;;;;;;23.69;47.00;103095.72;4994053;28;20046;-73
2021/09/02 05:41:30;;;;;;;14.10;9.43;;;;;;;23.69;46.56;103099.31;4993631;28;20030;-73
2021/09/02 05:43:55;;;;;;;12.15;8.00;;;;;;;23.69;46.81;103092.94;4993700;28;20038;-87
2021/09/02 05:46:21;;;;;;;14.57;8.88;;;;;;;23.63;46.71;103097.91;4993472;28;20030;-72
2021/09/02 05:48:47;;;;;;;12.85;7.50;;;;;;;23.79;46.14;103095.25;4993629;28;20034;-73
2021/09/02 05:51:13;;;;;;;12.13;8.50;;;;;;;23.71;46.50;103098.97;4995019;28;20050;-90
2021/09/02 05:53:38;;;;;;;15.23;7.93;;;;;;;23.69;46.53;103106.88;4994591;28;20026;-73
2021/09/02 05:56:05;;;;;;;14.45;7.68;;;;;;;23.63;46.44;103105.47;4994790;28;20031;-89
2021/09/02 05:58:31;;;;;;;9.70;7.43;;;;;;;23.50;46.85;103105.44;4994399;28;20029;-87
2021/09/02 06:00:56;;;;;;;12.30;7.22;;;;;;;23.59;46.51;103108.13;4994008;28;20035;-79
2021/09/02 06:03:22;;;;;;;11.60;7.78;;;;;;;23.69;46.29;103106.88;4994085;28;20022;-89
2021/09/02 06:05:48;;;;;;;16.83;9.23;;;;;;;23.71;46.13;103112.94;4983723;28;20018;-83
2021/09/02 06:08:13;;;;;;;17.15;8.23;;;;;;;23.73;46.15;103108.66;4993553;28;20033;-89
2021/09/02 06:10:39;;;;;;;17.20;9.15;;;;;;;23.73;46.40;103105.03;4994120;28;20473;-88
2021/09/02 06:13:05;;;;;;;12.88;6.25;;;;;;;23.76;46.11;103107.13;4994674;28;20033;-90
2021/09/02 06:15:32;;;;;;;21.08;10.65;;;;;;;23.70;46.26;103103.75;4993448;28;20018;-90
2021/09/02 06:17:58;;;;;;;14.52;8.10;;;;;;;23.73;46.24;103103.06;4994477;28;20030;-76
2021/09/02 06:20:25;;;;;;;10.35;6.97;;;;;;;23.66;46.32;103108.41;4994088;28;20038;-76
2021/09/02 06:22:51;;;;;;;11.20;7.10;;;;;;;23.65;46.01;103105.94;4991821;28;20036;-85
2021/09/02 06:25:17;;;;;;;13.00;7.43;;;;;;;23.68;46.17;103106.06;4993462;28;20038;-72
2021/09/02 06:27:43;;;;;;;15.75;7.10;;;;;;;23.70;46.27;103100.13;4993364;28;20034;-72
2021/09/02 06:30:09;;;;;;;12.65;6.32;;;;;;;23.72;46.27;103108.97;4992908;28;20083;-76
2021/09/02 06:32:34;;;;;;;13.73;7.28;;;;;;;23.73;45.98;103103.06;4992953;28;20075;-72
2021/09/02 06:35:00;;;;;;;17.23;7.65;;;;;;;23.77;45.97;103108.75;4993207;28;20030;-87
2021/09/02 06:37:26;;;;;;;10.38;7.65;;;;;;;23.76;45.98;103113.53;4992782;28;20030;-88
2021/09/02 06:39:51;;;;;;;11.38;6.50;;;;;;;23.74;46.13;103115.06;4993282;28;20472;-72
2021/09/02 06:42:17;;;;;;;13.48;7.82;;;;;;;23.78;46.23;103111.19;4991717;28;20022;-75
2021/09/02 06:44:42;;;;;;;16.73;7.45;;;;;;;23.64;46.69;103109.88;4991520;28;20026;-72
2021/09/02 06:47:08;;;;;;;12.35;7.05;;;;;;;23.65;46.54;103117.09;4991225;28;20023;-70
2021/09/02 06:49:34;;;;;;;13.43;6.88;;;;;;;23.71;46.46;103118.50;4992524;28;20544;-85
2021/09/02 06:52:00;;;;;;;14.10;6.75;;;;;;;23.76;46.16;103116.31;4992877;28;20020;-69
2021/09/02 06:54:25;;;;;;;13.57;7.65;;;;;;;23.80;46.15;103122.00;4993254;28;20087;-90
2021/09/02 06:56:52;;;;;;;11.80;6.50;;;;;;;23.79;46.25;103117.59;4992954;28;20027;-78
2021/09/02 06:59:19;;;;;;;14.73;8.68;;;;;;;23.80;45.97;103120.06;4992472;28;20030;-69
2021/09/02 07:01:46;;;;;;;19.17;7.45;;;;;;;23.79;46.15;103115.63;4991252;28;20030;-70
2021/09/02 07:04:12;;;;;;;16.17;8.00;;;;;;;23.84;45.88;103113.78;4991433;28;20022;-89
2021/09/02 07:06:37;;;;;;;14.80;7.88;;;;;;;23.76;45.93;103123.88;4992341;28;20023;-70
2021/09/02 07:09:03;;;;;;;11.02;7.22;;;;;;;23.71;46.17;103118.50;4992420;28;20023;-71
2021/09/02 07:11:29;;;;;;;11.27;6.38;;;;;;;23.82;45.94;103119.72;4991693;28;20130;-71
2021/09/02 07:13:55;;;;;;;14.45;7.22;;;;;;;23.85;45.56;103118.19;4992861;28;20097;-94
2021/09/02 07:16:20;;;;;;;9.00;6.30;;;;;;;23.75;45.98;103114.69;4992697;28;20033;-88
2021/09/02 07:18:46;;;;;;;11.82;6.57;;;;;;;23.77;45.93;103112.38;4992211;28;20030;-72
2021/09/02 07:21:12;;;;;;;15.05;7.40;;;;;;;23.82;45.45;103116.09;4991723;28;20030;-92
2021/09/02 07:23:37;;;;;;;13.90;6.60;;;;;;;23.83;45.48;103112.97;4991445;28;20083;-72
2021/09/02 07:26:03;;;;;;;13.35;7.32;;;;;;;23.77;45.59;103115.16;4992797;28;20022;-72
2021/09/02 07:28:28;;;;;;;15.35;7.03;;;;;;;23.78;45.33;103115.97;4996830;28;20440;-86
2021/09/02 07:30:54;;;;;;;12.75;6.10;;;;;;;23.85;45.36;103119.00;5011036;28;20037;-72
2021/09/02 07:33:20;;;;;;;16.35;8.45;;;;;;;23.89;45.30;103119.13;5011720;28;20025;-72
2021/09/02 07:35:45;;;;;;;16.55;8.27;;;;;;;23.85;44.85;103116.22;5011730;28;20026;-72
2021/09/02 07:38:11;;;;;;;14.88;7.07;;;;;;;23.93;44.83;103122.84;5012038;28;20037;-92
2021/09/02 07:40:37;;;;;;;11.95;6.65;;;;;;;23.89;44.72;103127.53;4982278;28;20026;-91
2021/09/02 07:43:02;;;;;;;14.50;7.13;;;;;;;23.85;44.87;103124.59;4978894;28;20557;-72
2021/09/02 07:45:29;;;;;;;12.95;6.07;;;;;;;23.79;44.63;103124.00;4977753;28;20078;-85
2021/09/02 07:47:54;;;;;;;11.20;7.47;;;;;;;23.84;44.36;103119.34;4974606;28;20034;-72
2021/09/02 07:50:20;;;;;;;12.38;6.55;;;;;;;23.79;44.59;103118.41;4974172;28;20041;-72
2021/09/02 07:52:46;;;;;;;13.35;7.22;;;;;;;23.73;44.72;103111.44;4974793;28;20018;-73
2021/09/02 07:55:11;;;;;;;17.55;7.22;;;;;;;23.75;44.53;103120.28;4975667;28;20026;-80
2021/09/02 07:57:42;;;;;;;11.27;6.90;;;;;;;23.75;44.33;103123.06;4976570;28;20113;-81
2021/09/02 08:00:09;;;;;;;12.27;7.22;;;;;;;23.80;44.73;103128.44;4991731;28;20045;-71
2021/09/02 08:02:34;;;;;;;15.00;8.10;;;;;;;23.77;44.79;103136.69;4991766;28;20385;-88
2021/09/02 08:05:00;;;;;;;17.17;7.25;;;;;;;23.83;44.48;103129.72;5004558;28;20030;-71
2021/09/02 08:07:26;;;;;;;12.27;7.25;;;;;;;23.72;45.37;103120.94;5011294;28;20034;-73
2021/09/02 08:09:51;;;;;;;15.23;7.88;;;;;;;23.76;45.68;103126.66;5011340;28;20030;-71
2021/09/02 08:12:17;;;;;;;12.73;7.07;;;;;;;23.60;46.36;103131.25;5010007;28;20033;-70
2021/09/02 08:14:42;;;;;;;12.60;7.50;;;;;;;23.59;46.91;103124.88;5011222;28;20021;-71
2021/09/02 08:17:08;;;;;;;12.00;7.45;;;;;;;23.65;46.73;103114.31;5010697;28;20030;-71
2021/09/02 08:19:33;;;;;;;17.45;8.57;;;;;;;23.60;47.23;103125.69;5010323;28;20041;-72
2021/09/02 08:21:59;;;;;;;18.17;9.05;;;;;;;23.64;47.13;103121.88;5010405;28;20395;-72
2021/09/02 08:24:25;;;;;;;15.05;8.30;;;;;;;23.62;47.69;103128.97;5010424;28;20061;-72
2021/09/02 08:26:50;;;;;;;23.77;9.13;;;;;;;23.63;47.42;103123.03;5009673;28;20029;-72
2021/09/02 08:29:16;;;;;;;17.25;9.25;;;;;;;23.71;47.50;103118.50;5010510;28;20691;-72
2021/09/02 08:31:41;;;;;;;15.70;8.63;;;;;;;23.75;47.68;103113.88;5010258;28;20034;-73
2021/09/02 08:34:07;;;;;;;14.95;8.60;;;;;;;23.86;47.66;103112.25;5007714;28;20031;-73
2021/09/02 08:36:34;;;;;;;20.27;9.73;;;;;;;23.84;47.87;103120.16;5010435;28;20030;-72
2021/09/02 08:39:00;;;;;;;15.88;8.90;;;;;;;23.90;47.63;103126.34;5010278;28;20030;-79
2021/09/02 08:41:26;;;;;;;14.27;8.70;;;;;;;23.96;47.36;103122.19;5010414;28;20387;-77
2021/09/02 08:43:51;;;;;;;11.88;7.63;;;;;;;23.97;47.47;103119.03;5010329;28;20040;-73
2021/09/02 08:46:18;;;;;;;15.18;8.70;;;;;;;23.95;47.09;103121.34;5010216;28;20104;-79
2021/09/02 08:48:46;;;;;;;15.48;7.65;;;;;;;23.98;47.24;103115.06;5009686;28;20034;-74
2021/09/02 08:51:12;;;;;;;10.02;7.10;;;;;;;24.02;47.14;103112.38;5006886;28;20017;-73
2021/09/02 08:53:37;;;;;;;14.75;9.07;;;;;;;24.05;46.96;103117.28;5008056;28;20022;-74
2021/09/02 08:56:03;;;;;;;15.27;9.07;;;;;;;24.05;46.70;103120.09;5008897;28;20093;-74
2021/09/02 08:58:31;;;;;;;18.52;8.45;;;;;;;24.12;46.92;103122.31;5008069;28;20543;-74
2021/09/02 09:00:57;;;;;;;13.45;8.52;;;;;;;24.13;46.75;103123.94;5008223;28;20415;-75
2021/09/02 09:03:24;;;;;;;19.63;8.82;;;;;;;24.16;46.38;103126.81;5007820;28;20022;-83
2021/09/02 09:05:59;;;;;;;14.05;8.10;;;;;;;24.11;46.30;103124.28;4989111;28;20027;-74
2021/09/02 09:08:36;;;;;;;13.20;7.68;;;;;;;24.07;46.64;103123.34;4989054;28;20408;-79
2021/09/02 09:11:20;;;;;;;10.93;8.52;;;;;;;24.06;46.60;103116.13;4988782;28;20478;-75
2021/09/02 09:13:47;;;;;;;15.73;8.48;;;;;;;24.14;46.42;103120.78;5000338;28;20022;-74
2021/09/02 09:16:13;;;;;;;13.30;7.30;;;;;;;24.19;45.99;103122.53;5009049;28;20092;-73
2021/09/02 09:18:44;;;;;;;12.25;7.72;;;;;;;24.18;45.89;103120.88;5009672;28;20472;-73
2021/09/02 09:21:16;;;;;;;13.45;7.38;;;;;;;24.23;45.74;103121.47;5009555;28;20026;-74
2021/09/02 09:23:50;;;;;;;10.55;7.53;;;;;;;24.35;45.16;103121.50;5009436;28;20049;-84
2021/09/02 09:26:16;;;;;;;18.13;8.23;;;;;;;24.29;45.63;103124.84;5009535;28;20018;-73
2021/09/02 09:28:42;;;;;;;11.88;7.28;;;;;;;24.23;45.33;103121.47;5009328;28;20180;-83
2021/09/02 09:31:46;;;;;;;16.77;8.38;;;;;;;24.35;44.78;103121.50;5009447;28;20113;-73
2021/09/02 09:34:12;;;;;;;18.10;8.00;;;;;;;24.33;44.65;103117.41;4950506;28;20394;-74
2021/09/02 09:36:38;;;;;;;17.42;8.63;;;;;;;24.28;45.06;103124.03;4957840;28;20389;-74
2021/09/02 09:39:04;;;;;;;17.13;8.95;;;;;;;24.47;44.42;103120.66;4952098;28;20057;-73
2021/09/02 09:41:35;;;;;;;11.02;8.27;;;;;;;24.41;44.60;103124.88;4973910;28;20025;-73
2021/09/02 09:44:23;;;;;;;15.55;8.50;;;;;;;24.44;44.58;103124.16;4982531;28;20037;-74
2021/09/02 09:47:07;;;;;;;24.92;9.38;;;;;;;24.27;43.79;103121.59;4989742;28;20023;-75
2021/09/02 09:49:49;;;;;;;14.68;7.72;;;;;;;24.34;44.01;103119.06;4989832;28;20476;-73
2021/09/02 09:52:30;;;;;;;10.68;7.15;;;;;;;24.33;43.09;103117.41;4988495;28;20031;-73
2021/09/02 09:55:04;;;;;;;12.27;7.68;;;;;;;24.48;42.46;103116.69;4989918;28;20075;-77
2021/09/02 09:57:31;;;;;;;15.57;8.02;;;;;;;24.56;42.06;103118.59;4988416;28;20088;-74
2021/09/02 10:00:01;;;;;;;12.10;7.43;;;;;;;24.43;41.97;103122.53;4989767;28;20027;-82
2021/09/02 10:02:27;;;;;;;13.32;8.68;;;;;;;24.44;41.45;103126.16;4988370;28;20416;-74
2021/09/02 10:04:55;;;;;;;12.27;8.30;;;;;;;24.49;40.91;103123.13;4989587;28;20023;-73
2021/09/02 10:07:21;;;;;;;12.43;8.20;;;;;;;24.50;40.29;103127.56;4988135;28;20022;-82
2021/09/02 10:09:53;;;;;;;9.80;7.10;;;;;;;24.51;40.55;103120.78;4988359;28;20485;-73
2021/09/02 10:12:21;;;;;;;12.68;7.88;;;;;;;24.56;40.09;103117.75;4990797;28;20022;-74
2021/09/02 10:14:48;;;;;;;9.60;7.93;;;;;;;24.63;40.36;103113.19;4991537;28;20060;-74
2021/09/02 10:17:14;;;;;;;11.93;8.25;;;;;;;24.42;40.70;103122.91;4991546;28;20031;-74
2021/09/02 10:19:40;;;;;;;17.67;9.85;;;;;;;24.43;40.33;103119.75;4991491;28;20129;-78
2021/09/02 10:22:08;;;;;;;15.10;8.52;;;;;;;24.53;40.17;103118.44;4991709;28;20079;-73
2021/09/02 10:24:40;;;;;;;12.05;7.72;;;;;;;24.51;40.14;103120.78;4991191;28;20074;-73
2021/09/02 10:27:18;;;;;;;12.93;9.32;;;;;;;24.49;40.19;103114.75;4992627;28;20135;-75
2021/09/02 10:29:45;;;;;;;15.70;9.88;;;;;;;24.57;40.05;103117.41;4992682;28;20083;-73
2021/09/02 10:32:22;;;;;;;16.40;9.98;;;;;;;24.66;40.14;103122.88;4991412;28;20117;-83
2021/09/02 10:35:12;;;;;;;14.25;8.80;;;;;;;24.57;40.32;103113.81;4991400;28;20162;-82
2021/09/02 10:37:41;;;;;;;16.20;8.45;;;;;;;24.61;39.88;103123.09;4992421;28;20034;-74
2021/09/02 10:40:16;;;;;;;14.18;8.32;;;;;;;24.47;40.14;103115.06;4992725;28;20030;-74
2021/09/02 10:42:49;;;;;;;14.50;8.85;;;;;;;24.47;40.18;103108.69;4991144;28;20031;-74
2021/09/02 10:45:30;;;;;;;28.98;10.73;;;;;;;24.54;39.70;103109.72;4992542;28;20376;-73
2021/09/02 10:48:15;;;;;;;14.93;9.40;;;;;;;24.59;39.77;103106.69;4992446;28;20066;-83
2021/09/02 10:50:43;;;;;;;15.07;9.55;;;;;;;24.63;40.10;103101.19;4992261;28;20026;-73
2021/09/02 10:53:13;;;;;;;12.18;9.10;;;;;;;24.76;39.85;103100.00;4992287;28;20477;-73
2021/09/02 10:55:51;;;;;;;17.02;9.60;;;;;;;24.72;40.06;103103.88;4991302;28;20041;-74
2021/09/02 10:58:36;;;;;;;15.90;9.13;;;;;;;24.78;39.41;103100.44;4992349;28;20408;-74
2021/09/02 11:01:24;;;;;;;14.43;8.98;;;;;;;24.66;39.16;103100.50;4985560;28;20038;-75
2021/09/02 11:03:51;;;;;;;15.85;8.27;;;;;;;24.67;39.24;103090.13;4976421;28;20042;-74
2021/09/02 11:06:17;;;;;;;12.00;8.30;;;;;;;24.78;39.06;103094.84;4976976;28;20113;-75
2021/09/02 11:08:43;;;;;;;23.42;8.80;;;;;;;24.94;38.73;103094.09;4974182;28;20026;-74
2021/09/02 11:11:16;;;;;;;17.40;8.93;;;;;;;24.94;38.89;103082.91;4977186;28;20528;-74
2021/09/02 11:13:44;;;;;;;13.57;8.15;;;;;;;25.00;38.80;103092.69;4976611;28;20388;-82